createdAt,value
2023-05-25T00:01:03.149Z,95.30
2023-05-25T00:04:25.263Z,94.80
2023-05-25T00:07:46.881Z,94.60
2023-05-25T00:11:08.466Z,94.40
2023-05-25T00:14:30.091Z,94.60
2023-05-25T00:17:53.975Z,94.70
2023-05-25T00:21:15.899Z,94.90
2023-05-25T00:24:37.616Z,95.20
2023-05-25T00:27:59.233Z,95.30
2023-05-25T00:31:20.892Z,95.50
2023-05-25T00:34:44.165Z,96.00
2023-05-25T00:38:05.775Z,95.30
2023-05-25T00:41:28.188Z,95.50
2023-05-25T00:44:49.918Z,95.50
2023-05-25T00:48:12.068Z,95.60
2023-05-25T00:51:35.942Z,95.60
2023-05-25T00:54:58.305Z,95.70
2023-05-25T00:58:20.846Z,96.00
2023-05-25T01:01:44.491Z,96.30
2023-05-25T01:05:06.432Z,96.70
2023-05-25T01:08:30.709Z,96.70
2023-05-25T01:11:52.893Z,97.10
2023-05-25T01:15:14.505Z,97.40
2023-05-25T01:18:36.133Z,97.70
2023-05-25T01:22:03.707Z,97.80
2023-05-25T01:25:26.862Z,98.00
2023-05-25T01:28:50.125Z,98.10
2023-05-25T01:32:13.138Z,98.20
2023-05-25T01:35:35.457Z,98.40
2023-05-25T01:38:59.063Z,98.40
2023-05-25T01:42:20.664Z,98.50
2023-05-25T01:45:42.430Z,98.70
2023-05-25T01:49:09.023Z,98.80
2023-05-25T01:52:32.326Z,98.70
2023-05-25T01:55:58.614Z,98.60
2023-05-25T01:59:21.474Z,98.50
2023-05-25T02:02:44.310Z,98.60
2023-05-25T02:06:06.192Z,98.80
2023-05-25T02:09:27.838Z,98.90
2023-05-25T02:12:50.884Z,99.00
2023-05-25T02:16:12.544Z,99.10
2023-05-25T02:19:35.061Z,99.30
2023-05-25T02:22:56.689Z,99.40
2023-05-25T02:26:18.348Z,99.50
2023-05-25T02:29:41.349Z,99.60
2023-05-25T02:33:03.052Z,99.60
2023-05-25T02:36:24.697Z,99.70
2023-05-25T02:39:46.401Z,99.70
2023-05-25T02:43:08.071Z,99.70
2023-05-25T02:46:31.096Z,99.70
2023-05-25T02:49:52.742Z,99.80
2023-05-25T02:53:14.347Z,99.90
2023-05-25T02:56:36.104Z,99.90
2023-05-25T02:59:57.734Z,99.90
2023-05-25T03:03:20.722Z,99.90
2023-05-25T03:06:42.464Z,99.90
2023-05-25T03:10:04.442Z,99.90
2023-05-25T03:13:26.074Z,99.90
2023-05-25T03:16:47.729Z,99.90
2023-05-25T03:20:11.475Z,99.90
2023-05-25T03:23:33.097Z,99.90
2023-05-25T03:26:54.725Z,99.90
2023-05-25T03:30:16.436Z,99.90
2023-05-25T03:33:38.126Z,99.90
2023-05-25T03:37:01.102Z,99.90
2023-05-25T03:40:22.740Z,99.90
2023-05-25T03:43:44.373Z,99.90
2023-05-25T03:47:06.040Z,99.90
2023-05-25T03:50:27.655Z,99.90
2023-05-25T03:53:50.609Z,99.90
2023-05-25T03:57:12.230Z,99.90
2023-05-25T04:00:33.856Z,99.90
2023-05-25T04:03:55.686Z,99.90
2023-05-25T04:07:17.704Z,99.90
2023-05-25T04:10:40.661Z,99.90
2023-05-25T04:14:02.419Z,99.90
2023-05-25T04:17:24.057Z,99.90
2023-05-25T04:20:46.138Z,99.90
2023-05-25T04:24:07.846Z,99.90
2023-05-25T04:27:30.800Z,99.90
2023-05-25T04:30:52.456Z,99.90
2023-05-25T04:34:14.094Z,99.90
2023-05-25T04:37:35.750Z,99.90
2023-05-25T04:40:57.377Z,99.90
2023-05-25T04:44:20.341Z,99.90
2023-05-25T04:47:42.000Z,99.90
2023-05-25T04:51:03.792Z,99.90
2023-05-25T04:54:25.402Z,99.90
2023-05-25T04:57:47.006Z,99.90
2023-05-25T05:01:09.995Z,99.90
2023-05-25T05:04:31.643Z,99.90
2023-05-25T05:07:53.321Z,98.80
2023-05-25T05:11:14.970Z,97.30
2023-05-25T05:14:36.609Z,94.10
2023-05-25T05:17:59.909Z,90.80
2023-05-25T05:21:23.408Z,86.40
2023-05-25T05:24:45.164Z,87.40
2023-05-25T05:28:06.802Z,82.20
2023-05-25T05:31:28.487Z,82.30
2023-05-25T05:34:51.495Z,79.70
2023-05-25T05:38:13.111Z,81.10
2023-05-25T05:41:34.746Z,80.00
2023-05-25T05:44:56.356Z,79.10
2023-05-25T05:48:17.989Z,78.40
2023-05-25T05:51:40.933Z,78.80
2023-05-25T05:55:02.588Z,74.50
2023-05-25T05:58:24.233Z,73.20
2023-05-25T06:01:45.882Z,74.80
2023-05-25T06:05:07.985Z,77.40
2023-05-25T06:08:31.069Z,75.90
2023-05-25T06:11:52.678Z,75.60
2023-05-25T06:15:14.322Z,72.90
2023-05-25T06:18:35.963Z,74.80
2023-05-25T06:21:57.592Z,71.10
2023-05-25T06:25:20.682Z,72.20
2023-05-25T06:28:42.325Z,70.90
2023-05-25T06:32:04.243Z,69.80
2023-05-25T06:35:25.913Z,72.90
2023-05-25T06:38:47.530Z,67.40
2023-05-25T06:42:10.507Z,67.60
2023-05-25T06:45:32.188Z,64.30
2023-05-25T06:48:53.823Z,65.80
2023-05-25T06:52:15.441Z,68.40
2023-05-25T06:55:37.046Z,72.30
2023-05-25T06:59:00.047Z,77.70
2023-05-25T07:02:21.795Z,81.80
2023-05-25T07:05:43.749Z,87.30
2023-05-25T07:09:05.583Z,88.60
2023-05-25T07:12:27.215Z,89.60
2023-05-25T07:15:50.214Z,90.50
2023-05-25T07:19:11.975Z,90.80
2023-05-25T07:22:33.627Z,90.90
2023-05-25T07:25:55.267Z,91.40
2023-05-25T07:29:16.883Z,91.90
2023-05-25T07:32:40.231Z,92.20
2023-05-25T07:36:02.478Z,92.30
2023-05-25T07:39:24.108Z,92.20
2023-05-25T07:42:45.742Z,92.50
2023-05-25T07:46:07.357Z,92.10
2023-05-25T07:49:30.360Z,92.20
2023-05-25T07:52:51.994Z,91.60
2023-05-25T07:56:13.620Z,91.20
2023-05-25T07:59:35.213Z,83.20
2023-05-25T08:02:56.980Z,80.40
2023-05-25T08:06:20.064Z,77.50
2023-05-25T08:09:41.688Z,74.70
2023-05-25T08:13:03.307Z,73.20
2023-05-25T08:16:25.252Z,71.30
2023-05-25T08:19:46.934Z,70.40
2023-05-25T08:23:09.898Z,74.90
2023-05-25T08:26:45.446Z,75.70
2023-05-25T08:30:13.194Z,80.20
2023-05-25T08:33:34.837Z,79.00
2023-05-25T08:36:56.828Z,76.20
2023-05-25T08:40:22.447Z,77.90
2023-05-25T08:43:44.075Z,73.80
2023-05-25T08:47:06.483Z,75.30
2023-05-25T08:50:29.858Z,75.50
2023-05-25T08:53:51.662Z,77.10
2023-05-25T08:57:15.544Z,74.60
2023-05-25T09:00:40.692Z,79.20
2023-05-25T09:04:02.359Z,76.40
2023-05-25T09:07:24.451Z,75.20
2023-05-25T09:10:46.638Z,78.20
2023-05-25T09:14:09.567Z,76.40
2023-05-25T09:17:31.246Z,78.60
2023-05-25T09:20:53.223Z,81.20
2023-05-25T09:24:15.552Z,83.30
2023-05-25T09:27:37.708Z,83.60
2023-05-25T09:31:00.961Z,85.00
2023-05-25T09:34:22.620Z,83.10
2023-05-25T09:37:44.874Z,82.40
2023-05-25T09:41:06.758Z,82.80
2023-05-25T09:44:28.742Z,80.80
2023-05-25T09:47:54.010Z,80.00
2023-05-25T09:51:15.685Z,82.90
2023-05-25T09:54:37.313Z,78.70
2023-05-25T09:57:58.932Z,80.30
2023-05-25T10:01:20.651Z,77.70
2023-05-25T10:04:43.691Z,76.50
2023-05-25T10:08:05.533Z,76.50
2023-05-25T10:11:27.625Z,77.40
2023-05-25T10:14:50.261Z,78.10
2023-05-25T10:18:13.374Z,77.00
2023-05-25T10:21:37.789Z,76.20
2023-05-25T10:25:01.508Z,76.20
2023-05-25T10:28:27.739Z,78.20
2023-05-25T10:31:49.805Z,79.90
2023-05-25T10:35:12.159Z,80.60
2023-05-25T10:38:35.120Z,79.10
2023-05-25T10:41:57.081Z,78.20
2023-05-25T10:45:19.001Z,80.70
2023-05-25T10:48:46.087Z,81.80
2023-05-25T10:52:07.758Z,81.40
2023-05-25T10:55:41.389Z,82.10
2023-05-25T10:59:03.069Z,81.70
2023-05-25T11:02:27.146Z,81.30
2023-05-25T11:05:50.245Z,83.90
2023-05-25T11:09:23.546Z,82.80
2023-05-25T11:12:47.286Z,84.00
2023-05-25T11:16:18.976Z,82.60
2023-05-25T11:19:44.066Z,83.30
2023-05-25T11:23:20.571Z,83.00
2023-05-25T11:26:52.702Z,83.30
2023-05-25T11:30:17.481Z,83.50
2023-05-25T11:33:39.260Z,82.50
2023-05-25T11:37:00.912Z,83.10
2023-05-25T11:40:22.899Z,82.80
2023-05-25T11:43:45.196Z,84.00
2023-05-25T11:47:09.390Z,82.20
2023-05-25T11:50:31.009Z,83.80
2023-05-25T11:53:52.647Z,81.80
2023-05-25T11:57:14.860Z,82.30
2023-05-25T12:00:36.530Z,83.50
2023-05-25T12:04:07.811Z,82.90
2023-05-25T12:07:30.135Z,83.10
2023-05-25T12:10:51.796Z,85.20
2023-05-25T12:14:13.491Z,82.40
2023-05-25T12:17:35.193Z,83.80
2023-05-25T12:20:58.346Z,83.00
2023-05-25T12:24:20.112Z,82.40
2023-05-25T12:27:41.809Z,83.80
2023-05-25T12:31:18.388Z,82.20
2023-05-25T12:34:40.048Z,82.30
2023-05-25T12:38:12.295Z,82.30
2023-05-25T12:41:42.041Z,83.80
2023-05-25T12:45:07.191Z,82.30
2023-05-25T12:48:29.036Z,82.20
2023-05-25T12:51:50.657Z,83.10
2023-05-25T12:55:19.822Z,84.00
2023-05-25T12:58:41.478Z,83.90
2023-05-25T13:02:04.757Z,83.90
2023-05-25T13:05:27.156Z,83.10
2023-05-25T13:08:49.263Z,82.20
2023-05-25T13:12:12.246Z,82.40
2023-05-25T13:15:33.863Z,80.80
2023-05-25T13:18:55.487Z,82.60
2023-05-25T13:22:17.120Z,82.30
2023-05-25T13:25:38.783Z,81.50
2023-05-25T13:29:01.777Z,83.40
2023-05-25T13:32:23.522Z,82.90
2023-05-25T13:35:45.176Z,81.00
2023-05-25T13:39:07.443Z,81.40
2023-05-25T13:42:29.192Z,81.40
2023-05-25T13:45:52.164Z,81.10
2023-05-25T13:49:13.944Z,81.60
2023-05-25T13:52:35.644Z,79.90
2023-05-25T13:55:57.275Z,81.10
2023-05-25T13:59:18.917Z,80.80
2023-05-25T14:02:42.022Z,82.50
2023-05-25T14:06:03.753Z,82.10
2023-05-25T14:09:25.385Z,79.40
2023-05-25T14:12:47.002Z,79.20
2023-05-25T14:16:08.662Z,79.80
2023-05-25T14:19:31.655Z,79.00
2023-05-25T14:22:53.380Z,79.90
2023-05-25T14:26:14.997Z,80.00
2023-05-25T14:29:36.615Z,81.90
2023-05-25T14:32:58.289Z,82.10
2023-05-25T14:36:21.273Z,80.90
2023-05-25T14:39:42.906Z,81.10
2023-05-25T14:43:05.044Z,79.70
2023-05-25T14:46:27.363Z,82.50
2023-05-25T14:49:49.022Z,80.10
2023-05-25T14:53:12.281Z,80.80
2023-05-25T14:56:35.078Z,81.40
2023-05-25T14:59:56.789Z,81.10
2023-05-25T15:03:18.779Z,80.70
2023-05-25T15:06:41.232Z,80.60
2023-05-25T15:10:04.518Z,79.70
2023-05-25T15:13:26.149Z,80.50
2023-05-25T15:16:47.785Z,78.00
2023-05-25T15:20:09.998Z,80.70
2023-05-25T15:23:31.689Z,80.30
2023-05-25T15:26:54.729Z,79.80
2023-05-25T15:30:16.511Z,79.70
2023-05-25T15:33:51.528Z,82.00
2023-05-25T15:37:18.470Z,81.80
2023-05-25T15:40:40.384Z,83.00
2023-05-25T15:44:03.990Z,81.50
2023-05-25T15:47:25.737Z,81.60
2023-05-25T15:50:47.955Z,81.90
2023-05-25T15:54:12.684Z,82.50
2023-05-25T15:57:36.779Z,82.30
2023-05-25T16:01:00.761Z,82.30
2023-05-25T16:04:23.503Z,81.10
2023-05-25T16:07:46.012Z,81.00
2023-05-25T16:11:08.338Z,80.80
2023-05-25T16:14:30.911Z,82.80
2023-05-25T16:17:54.602Z,80.70
2023-05-25T16:21:17.035Z,81.20
2023-05-25T16:24:45.566Z,80.80
2023-05-25T16:28:08.018Z,80.70
2023-05-25T16:31:30.464Z,81.40
2023-05-25T16:34:54.654Z,81.30
2023-05-25T16:38:17.154Z,81.00
2023-05-25T16:41:39.748Z,80.60
2023-05-25T16:45:01.993Z,82.00
2023-05-25T16:48:23.825Z,82.00
2023-05-25T16:51:46.849Z,81.50
2023-05-25T16:55:08.595Z,81.00
2023-05-25T16:58:30.219Z,81.40
2023-05-25T17:01:51.917Z,80.80
2023-05-25T17:05:13.625Z,81.10
2023-05-25T17:08:36.585Z,81.10
2023-05-25T17:11:58.227Z,82.10
2023-05-25T17:15:19.877Z,81.60
2023-05-25T17:18:41.492Z,81.60
2023-05-25T17:22:03.100Z,81.70
2023-05-25T17:25:26.045Z,81.40
2023-05-25T17:28:47.673Z,82.10
2023-05-25T17:32:09.790Z,83.10
2023-05-25T17:35:32.077Z,82.20
2023-05-25T17:38:53.672Z,82.10
2023-05-25T17:42:16.716Z,82.10
2023-05-25T17:45:38.398Z,82.60
2023-05-25T17:49:00.046Z,82.90
2023-05-25T17:52:21.759Z,83.00
2023-05-25T17:55:43.604Z,83.00
2023-05-25T17:59:06.848Z,83.30
2023-05-25T18:02:28.707Z,83.50
2023-05-25T18:05:50.632Z,83.10
2023-05-25T18:09:12.260Z,83.80
2023-05-25T18:12:33.908Z,84.90
2023-05-25T18:15:56.949Z,83.70
2023-05-25T18:19:18.614Z,83.80
2023-05-25T18:22:40.216Z,84.00
2023-05-25T18:26:01.996Z,84.30
2023-05-25T18:29:23.818Z,84.70
2023-05-25T18:32:47.485Z,84.60
2023-05-25T18:36:09.240Z,85.00
2023-05-25T18:39:30.892Z,85.20
2023-05-25T18:42:52.698Z,86.40
2023-05-25T18:46:14.393Z,87.80
2023-05-25T18:49:37.420Z,88.50
2023-05-25T18:52:59.035Z,89.10
2023-05-25T18:56:21.107Z,89.10
2023-05-25T18:59:42.792Z,89.20
2023-05-25T19:03:04.605Z,90.00
2023-05-25T19:06:27.646Z,90.60
2023-05-25T19:09:49.323Z,90.40
2023-05-25T19:13:10.987Z,90.40
2023-05-25T19:16:32.720Z,90.30
2023-05-25T19:19:54.373Z,90.50
2023-05-25T19:23:17.324Z,90.60
2023-05-25T19:26:38.954Z,90.80
2023-05-25T19:30:00.825Z,90.80
2023-05-25T19:33:22.542Z,91.50
2023-05-25T19:36:44.146Z,91.00
2023-05-25T19:40:07.805Z,91.10
2023-05-25T19:43:29.609Z,91.20
2023-05-25T19:46:51.450Z,91.50
2023-05-25T19:50:13.237Z,91.60
2023-05-25T19:53:34.869Z,92.10
2023-05-25T19:56:57.867Z,92.50
2023-05-25T20:00:25.979Z,92.50
2023-05-25T20:03:48.641Z,93.30
2023-05-25T20:07:10.344Z,93.00
2023-05-25T20:10:33.048Z,92.90
2023-05-25T20:13:56.105Z,93.30
2023-05-25T20:17:17.800Z,93.50
2023-05-25T20:20:39.466Z,93.20
2023-05-25T20:24:01.184Z,93.70
2023-05-25T20:27:22.851Z,93.40
2023-05-25T20:30:45.888Z,93.40
2023-05-25T20:34:07.614Z,93.70
2023-05-25T20:37:29.270Z,94.30
2023-05-25T20:40:50.913Z,93.90
2023-05-25T20:44:12.599Z,95.20
2023-05-25T20:47:38.405Z,95.40
2023-05-25T20:51:00.086Z,95.70
2023-05-25T20:54:21.808Z,95.80
2023-05-25T20:57:43.523Z,96.30
2023-05-25T21:01:05.779Z,96.90
2023-05-25T21:04:30.488Z,97.50
2023-05-25T21:07:53.516Z,97.70
2023-05-25T21:11:15.173Z,98.00
2023-05-25T21:14:36.825Z,98.10
2023-05-25T21:17:58.642Z,98.50
2023-05-25T21:21:22.342Z,98.60
2023-05-25T21:24:44.117Z,98.70
2023-05-25T21:28:05.775Z,99.00
2023-05-25T21:31:27.520Z,98.80
2023-05-25T21:34:49.217Z,99.20
2023-05-25T21:38:13.920Z,99.20
2023-05-25T21:41:35.568Z,99.30
2023-05-25T21:44:57.161Z,99.70
2023-05-25T21:48:18.816Z,99.90
2023-05-25T21:51:40.461Z,99.80
2023-05-25T21:55:03.625Z,99.70
2023-05-25T21:58:25.229Z,99.90
2023-05-25T22:01:46.887Z,99.80
2023-05-25T22:05:08.558Z,99.90
2023-05-25T22:08:30.252Z,99.90
2023-05-25T22:11:53.271Z,99.90
2023-05-25T22:15:14.883Z,99.90
2023-05-25T22:18:38.439Z,99.90
2023-05-25T22:22:00.327Z,99.90
2023-05-25T22:25:22.011Z,99.90
2023-05-25T22:28:45.068Z,99.90
2023-05-25T22:32:06.763Z,99.90
2023-05-25T22:35:28.437Z,99.90
2023-05-25T22:38:50.045Z,99.90
2023-05-25T22:42:11.939Z,99.90
2023-05-25T22:45:34.926Z,99.90
2023-05-25T22:48:56.504Z,99.90
2023-05-25T22:52:18.131Z,99.90
2023-05-25T22:55:39.778Z,99.90
2023-05-25T22:59:01.418Z,99.90
2023-05-25T23:02:24.575Z,99.90
2023-05-25T23:05:46.469Z,99.90
2023-05-25T23:09:08.323Z,99.90
2023-05-25T23:12:29.958Z,99.90
2023-05-25T23:15:51.599Z,99.90
2023-05-25T23:19:14.855Z,99.90
2023-05-25T23:22:36.470Z,99.90
2023-05-25T23:25:58.096Z,99.90
2023-05-25T23:29:19.748Z,99.90
2023-05-25T23:32:41.398Z,99.90
2023-05-25T23:36:04.556Z,99.90
2023-05-25T23:39:26.355Z,99.90
2023-05-25T23:42:47.969Z,99.90
2023-05-25T23:46:09.626Z,99.90
2023-05-25T23:49:31.293Z,99.90
2023-05-25T23:52:54.226Z,99.90
2023-05-25T23:56:15.875Z,99.90
2023-05-25T23:59:37.645Z,99.90
